Time;durP1;ratioP1;P1;durP2;ratioP2;P2;SDS_P1;SDS_P2;PMS_P1;PMS_P2;Temp;Humidity;BMP_temperature;BMP_pressure;BME280_temperature;BME280_humidity;BME280_pressure;Samples;Min_cycle;Max_cycle;Signal;HPM_P1;HPM_P2
2023/05/27 00:00:11;;;;;;;;;;;18.70;99.90;;;;;;4839454;29;19942;-79
2023/05/27 00:02:38;;;;;;;;;;;18.70;99.90;;;;;;4847615;29;20345;-79
2023/05/27 00:05:05;;;;;;;;;;;18.90;99.90;;;;;;4831717;29;22875;-79
2023/05/27 00:07:33;;;;;;;;;;;18.70;99.90;;;;;;4834834;29;19936;-79
2023/05/27 00:10:00;;;;;;;;;;;18.80;99.90;;;;;;4833641;29;20087;-79
2023/05/27 00:12:27;;;;;;;;;;;18.70;99.90;;;;;;4835613;29;19960;-79
2023/05/27 00:14:54;;;;;;;;;;;18.70;99.90;;;;;;4817634;29;20035;-79
2023/05/27 00:17:21;;;;;;;;;;;18.70;99.90;;;;;;4830484;29;19928;-79
2023/05/27 00:19:48;;;;;;;;;;;18.80;99.90;;;;;;4816395;29;19928;-79
2023/05/27 00:22:16;;;;;;;;;;;18.90;99.90;;;;;;4817233;29;19928;-80
2023/05/27 00:24:43;;;;;;;;;;;18.70;99.90;;;;;;4817628;29;19953;-80
2023/05/27 00:27:12;;;;;;;;;;;18.70;99.90;;;;;;4814902;29;19932;-80
2023/05/27 00:29:39;;;;;;;;;;;18.80;99.90;;;;;;4831661;29;19985;-80
2023/05/27 00:32:07;;;;;;;;;;;18.60;99.90;;;;;;4833228;29;19936;-80
2023/05/27 00:34:34;;;;;;;;;;;18.80;99.90;;;;;;4833926;29;20015;-80
2023/05/27 00:37:02;;;;;;;;;;;18.80;99.90;;;;;;4821381;29;20031;-79
2023/05/27 00:39:29;;;;;;;;;;;18.90;99.90;;;;;;4838106;29;19936;-79
2023/05/27 00:41:57;;;;;;;;;;;18.70;99.90;;;;;;4818801;29;23380;-80
2023/05/27 00:44:26;;;;;;;;;;;18.70;99.90;;;;;;4846180;29;19928;-80
2023/05/27 00:46:53;;;;;;;;;;;18.70;99.90;;;;;;4822213;29;19992;-80
2023/05/27 00:49:21;;;;;;;;;;;18.60;99.90;;;;;;4805822;29;19932;-80
2023/05/27 00:51:48;;;;;;;;;;;18.80;99.90;;;;;;4829840;29;19928;-79
2023/05/27 00:54:17;;;;;;;;;;;18.80;99.90;;;;;;4825014;29;19935;-79
2023/05/27 00:56:44;;;;;;;;;;;18.70;99.90;;;;;;4844227;29;19929;-79
2023/05/27 00:59:12;;;;;;;;;;;18.80;99.90;;;;;;4841587;29;19966;-79
2023/05/27 01:01:40;;;;;;;;;;;18.80;99.90;;;;;;4822391;29;19943;-79
2023/05/27 01:04:12;;;;;;;;;;;18.60;99.90;;;;;;4833612;29;20446;-79
2023/05/27 01:06:58;;;;;;;;;;;18.70;99.90;;;;;;4828356;29;20326;-79
2023/05/27 01:09:44;;;;;;;;;;;18.50;99.90;;;;;;4821381;29;19928;-79
2023/05/27 01:12:15;;;;;;;;;;;18.60;99.90;;;;;;4811833;29;20004;-79
2023/05/27 01:14:44;;;;;;;;;;;19.60;99.90;;;;;;4815952;29;19936;-79
2023/05/27 01:17:12;;;;;;;;;;;18.50;99.90;;;;;;4838953;29;22521;-79
2023/05/27 01:19:44;;;;;;;;;;;18.50;99.90;;;;;;4828758;29;19967;-79
2023/05/27 01:22:13;;;;;;;;;;;18.50;99.90;;;;;;4825194;29;19932;-79
2023/05/27 01:24:44;;;;;;;;;;;18.60;99.90;;;;;;4831856;29;19964;-79
2023/05/27 01:27:11;;;;;;;;;;;18.60;99.90;;;;;;4822540;29;19979;-79
2023/05/27 01:29:40;;;;;;;;;;;18.80;99.90;;;;;;4835175;29;19984;-79
2023/05/27 01:32:12;;;;;;;;;;;18.60;99.90;;;;;;4829285;29;19929;-79
2023/05/27 01:34:43;;;;;;;;;;;18.50;99.90;;;;;;4813851;29;19936;-79
2023/05/27 01:37:12;;;;;;;;;;;18.40;99.90;;;;;;4828619;29;19937;-79
2023/05/27 01:39:40;;;;;;;;;;;18.40;99.90;;;;;;4827258;29;19932;-78
2023/05/27 01:42:09;;;;;;;;;;;18.40;99.90;;;;;;4818006;29;19932;-79
2023/05/27 01:44:37;;;;;;;;;;;18.40;99.90;;;;;;4818584;29;19979;-79
2023/05/27 01:47:04;;;;;;;;;;;18.40;99.90;;;;;;4831527;29;19943;-78
2023/05/27 01:49:31;;;;;;;;;;;18.40;99.90;;;;;;4830771;29;19942;-79
2023/05/27 01:51:59;;;;;;;;;;;18.30;99.90;;;;;;4813987;29;20019;-79
2023/05/27 01:54:26;;;;;;;;;;;18.40;99.90;;;;;;4835331;29;20019;-79
2023/05/27 01:56:53;;;;;;;;;;;18.30;99.90;;;;;;4831908;29;19928;-79
2023/05/27 01:59:20;;;;;;;;;;;18.20;99.90;;;;;;4832281;29;20741;-79
2023/05/27 02:01:47;;;;;;;;;;;18.40;99.90;;;;;;4816026;29;19928;-78
2023/05/27 02:04:14;;;;;;;;;;;18.40;99.90;;;;;;4828724;29;20609;-77
2023/05/27 02:06:41;;;;;;;;;;;18.30;99.90;;;;;;4840226;29;20027;-78
2023/05/27 02:09:10;;;;;;;;;;;18.20;99.90;;;;;;4848174;29;19928;-78
2023/05/27 02:11:38;;;;;;;;;;;18.30;99.90;;;;;;4819652;29;19928;-78
2023/05/27 02:14:06;;;;;;;;;;;18.20;99.90;;;;;;4813068;29;19928;-78
2023/05/27 02:16:34;;;;;;;;;;;18.10;99.90;;;;;;4825598;29;19936;-79
2023/05/27 02:19:01;;;;;;;;;;;18.20;99.90;;;;;;4825155;29;20317;-78
2023/05/27 02:21:28;;;;;;;;;;;18.60;99.90;;;;;;4825134;29;19935;-78
2023/05/27 02:23:55;;;;;;;;;;;18.30;99.90;;;;;;4811081;29;20015;-79
2023/05/27 02:26:23;;;;;;;;;;;18.20;99.90;;;;;;4825500;29;20064;-78
2023/05/27 02:28:50;;;;;;;;;;;18.30;99.90;;;;;;4831180;29;19975;-79
2023/05/27 02:31:17;;;;;;;;;;;18.30;99.90;;;;;;4813995;29;20022;-79
2023/05/27 02:33:44;;;;;;;;;;;18.20;99.90;;;;;;4829634;29;20400;-79
2023/05/27 02:36:12;;;;;;;;;;;18.10;99.90;;;;;;4819045;29;19932;-78
2023/05/27 02:38:39;;;;;;;;;;;18.00;99.90;;;;;;4831535;29;23295;-78
2023/05/27 02:41:06;;;;;;;;;;;18.00;99.90;;;;;;4840173;29;19936;-78
2023/05/27 02:43:34;;;;;;;;;;;17.90;99.90;;;;;;4815305;29;19940;-78
2023/05/27 02:46:01;;;;;;;;;;;17.80;99.90;;;;;;4819202;29;20024;-78
2023/05/27 02:48:28;;;;;;;;;;;17.90;99.90;;;;;;4826117;29;19932;-79
2023/05/27 02:50:55;;;;;;;;;;;17.90;99.90;;;;;;4838825;29;20028;-78
2023/05/27 02:53:26;;;;;;;;;;;17.80;99.90;;;;;;4818693;29;20333;-79
2023/05/27 02:55:53;;;;;;;;;;;17.30;99.90;;;;;;4819535;29;19932;-78
2023/05/27 02:58:20;;;;;;;;;;;17.70;99.90;;;;;;4832706;29;20316;-78
2023/05/27 03:00:47;;;;;;;;;;;17.90;99.90;;;;;;4825107;29;19928;-78
2023/05/27 03:03:15;;;;;;;;;;;17.80;99.90;;;;;;4848755;29;19929;-79
2023/05/27 03:05:42;;;;;;;;;;;17.80;99.90;;;;;;4823346;29;20030;-78
2023/05/27 03:08:09;;;;;;;;;;;17.80;99.90;;;;;;4818411;29;20364;-78
2023/05/27 03:10:36;;;;;;;;;;;17.90;99.90;;;;;;4817524;29;19936;-78
2023/05/27 03:13:03;;;;;;;;;;;18.00;99.90;;;;;;4816132;29;19933;-78
2023/05/27 03:15:31;;;;;;;;;;;17.90;99.90;;;;;;4814034;29;19956;-78
2023/05/27 03:17:59;;;;;;;;;;;18.00;99.90;;;;;;4835058;29;20840;-80
2023/05/27 03:20:26;;;;;;;;;;;18.00;99.90;;;;;;4827846;29;19928;-78
2023/05/27 03:22:53;;;;;;;;;;;17.90;99.90;;;;;;4814671;29;19968;-78
2023/05/27 03:25:21;;;;;;;;;;;17.80;99.90;;;;;;4817498;29;19935;-78
2023/05/27 03:27:48;;;;;;;;;;;17.80;99.90;;;;;;4844976;29;19928;-78
2023/05/27 03:30:16;;;;;;;;;;;17.90;99.90;;;;;;4815063;29;19928;-78
2023/05/27 03:32:47;;;;;;;;;;;17.80;99.90;;;;;;4825662;29;20394;-78
2023/05/27 03:35:17;;;;;;;;;;;18.00;99.90;;;;;;4812949;29;20026;-78
2023/05/27 03:37:46;;;;;;;;;;;17.90;99.90;;;;;;4814662;29;20407;-78
2023/05/27 03:40:13;;;;;;;;;;;17.90;99.90;;;;;;4829180;29;19943;-78
2023/05/27 03:42:40;;;;;;;;;;;18.00;99.90;;;;;;4830230;29;20069;-79
2023/05/27 03:45:07;;;;;;;;;;;18.00;99.90;;;;;;4812832;29;19937;-78
2023/05/27 03:47:35;;;;;;;;;;;18.00;99.90;;;;;;4838535;29;19928;-78
2023/05/27 03:50:03;;;;;;;;;;;18.00;99.90;;;;;;4832400;29;19981;-77
2023/05/27 03:52:30;;;;;;;;;;;18.00;99.90;;;;;;4815741;29;19941;-77
2023/05/27 03:55:00;;;;;;;;;;;18.00;99.90;;;;;;4829323;29;19936;-78
2023/05/27 03:57:27;;;;;;;;;;;18.20;99.90;;;;;;4827286;29;19935;-78
2023/05/27 03:59:54;;;;;;;;;;;18.10;99.90;;;;;;4814214;29;22738;-78
2023/05/27 04:02:21;;;;;;;;;;;18.10;99.90;;;;;;4814683;29;19928;-78
2023/05/27 04:04:51;;;;;;;;;;;18.10;99.90;;;;;;4829275;29;22737;-78
2023/05/27 04:07:19;;;;;;;;;;;18.10;99.90;;;;;;4816029;29;20048;-77
2023/05/27 04:09:46;;;;;;;;;;;18.10;99.90;;;;;;4824984;29;19937;-77
2023/05/27 04:12:13;;;;;;;;;;;18.00;99.90;;;;;;4831272;29;20773;-78
2023/05/27 04:14:40;;;;;;;;;;;18.10;99.90;;;;;;4812283;29;19943;-79
2023/05/27 04:17:08;;;;;;;;;;;18.10;99.90;;;;;;4808868;29;20020;-77
2023/05/27 04:19:36;;;;;;;;;;;18.10;99.90;;;;;;4825479;29;20475;-77
2023/05/27 04:22:03;;;;;;;;;;;18.20;99.90;;;;;;4819814;29;19954;-77
2023/05/27 04:24:32;;;;;;;;;;;18.10;99.90;;;;;;4838093;29;20039;-79
2023/05/27 04:26:59;;;;;;;;;;;18.10;99.90;;;;;;4820482;29;22865;-78
2023/05/27 04:29:27;;;;;;;;;;;18.10;99.90;;;;;;4832198;29;20022;-78
2023/05/27 04:31:56;;;;;;;;;;;18.10;99.90;;;;;;4829839;29;19937;-79
2023/05/27 04:34:23;;;;;;;;;;;18.20;99.90;;;;;;4830380;29;22636;-78
2023/05/27 04:36:51;;;;;;;;;;;18.20;99.90;;;;;;4829857;29;19939;-79
2023/05/27 04:39:21;;;;;;;;;;;18.20;99.90;;;;;;4824138;29;22294;-79
2023/05/27 04:41:50;;;;;;;;;;;18.20;99.90;;;;;;4811218;29;19936;-78
2023/05/27 04:44:26;;;;;;;;;;;18.20;99.90;;;;;;4832076;29;19939;-77
2023/05/27 04:46:55;;;;;;;;;;;18.30;99.90;;;;;;4814100;29;19939;-78
2023/05/27 04:49:22;;;;;;;;;;;18.30;99.90;;;;;;4814437;29;19928;-78
2023/05/27 04:51:49;;;;;;;;;;;18.20;99.90;;;;;;4806891;29;20307;-77
2023/05/27 04:54:21;;;;;;;;;;;18.20;99.90;;;;;;4830186;29;20905;-78
2023/05/27 04:56:52;;;;;;;;;;;18.20;99.90;;;;;;4834181;29;19936;-77
2023/05/27 04:59:29;;;;;;;;;;;18.00;99.90;;;;;;4838371;29;20423;-78
2023/05/27 05:02:10;;;;;;;;;;;18.00;99.90;;;;;;4832479;29;19936;-79
2023/05/27 05:04:55;;;;;;;;;;;18.10;99.90;;;;;;4828015;29;19936;-78
2023/05/27 05:07:22;;;;;;;;;;;18.30;99.90;;;;;;4829304;29;19985;-78
2023/05/27 05:09:50;;;;;;;;;;;18.60;99.90;;;;;;4833750;29;19942;-78
2023/05/27 05:12:38;;;;;;;;;;;18.90;99.90;;;;;;4835824;29;19944;-78
2023/05/27 05:15:06;;;;;;;;;;;19.00;99.50;;;;;;4828012;29;19932;-79
2023/05/27 05:17:33;;;;;;;;;;;18.80;99.20;;;;;;4828958;29;19944;-77
2023/05/27 05:20:01;;;;;;;;;;;18.70;99.70;;;;;;4830363;29;19928;-79
2023/05/27 05:22:29;;;;;;;;;;;18.80;99.40;;;;;;4812157;29;19936;-78
2023/05/27 05:24:57;;;;;;;;;;;19.60;99.90;;;;;;4821603;29;19936;-78
2023/05/27 05:27:30;;;;;;;;;;;19.00;99.70;;;;;;4818542;29;19928;-79
2023/05/27 05:29:58;;;;;;;;;;;19.20;98.60;;;;;;4833338;29;20057;-79
2023/05/27 05:32:25;;;;;;;;;;;19.20;98.10;;;;;;4832394;29;20274;-79
2023/05/27 05:34:53;;;;;;;;;;;19.60;97.90;;;;;;4825676;29;19936;-78
2023/05/27 05:37:20;;;;;;;;;;;20.00;97.00;;;;;;4829745;29;20028;-78
2023/05/27 05:39:47;;;;;;;;;;;20.10;96.50;;;;;;4830940;29;19936;-78
2023/05/27 05:42:15;;;;;;;;;;;20.10;95.40;;;;;;4811547;29;20020;-79
2023/05/27 05:44:42;;;;;;;;;;;20.30;94.70;;;;;;4825165;29;19936;-77
2023/05/27 05:47:10;;;;;;;;;;;20.40;93.80;;;;;;4817188;29;20326;-79
2023/05/27 05:49:37;;;;;;;;;;;20.30;92.30;;;;;;4814226;29;22699;-79
2023/05/27 05:52:05;;;;;;;;;;;20.20;91.50;;;;;;4823300;29;19943;-77
2023/05/27 05:54:32;;;;;;;;;;;20.50;91.80;;;;;;4817014;29;19985;-79
2023/05/27 05:57:00;;;;;;;;;;;20.60;91.00;;;;;;4820073;29;19942;-77
2023/05/27 05:59:28;;;;;;;;;;;20.70;91.70;;;;;;4827409;29;19940;-79
2023/05/27 06:01:55;;;;;;;;;;;20.30;91.60;;;;;;4821055;29;19938;-79
2023/05/27 06:04:25;;;;;;;;;;;20.20;91.40;;;;;;4819625;29;19929;-78
2023/05/27 06:06:52;;;;;;;;;;;20.30;91.60;;;;;;4826221;29;20315;-78
2023/05/27 06:09:36;;;;;;;;;;;20.10;91.00;;;;;;4810397;29;20896;-77
2023/05/27 06:12:08;;;;;;;;;;;20.10;91.20;;;;;;4816568;29;19933;-77
2023/05/27 06:14:43;;;;;;;;;;;20.10;91.00;;;;;;4820811;29;20308;-79
2023/05/27 06:17:15;;;;;;;;;;;20.10;90.50;;;;;;4811131;29;20475;-79
2023/05/27 06:19:42;;;;;;;;;;;20.00;90.40;;;;;;4816230;29;19936;-77
2023/05/27 06:22:09;;;;;;;;;;;20.10;90.80;;;;;;4829031;29;19988;-77
2023/05/27 06:24:39;;;;;;;;;;;20.30;90.40;;;;;;4834981;29;19942;-79
2023/05/27 06:27:38;;;;;;;;;;;20.30;89.80;;;;;;4802907;29;19936;-77
2023/05/27 06:30:08;;;;;;;;;;;20.30;89.00;;;;;;4821036;29;20353;-77
2023/05/27 06:32:38;;;;;;;;;;;20.50;88.10;;;;;;4815341;29;20424;-78
2023/05/27 06:35:05;;;;;;;;;;;20.50;87.60;;;;;;4826628;29;19944;-77
2023/05/27 06:37:32;;;;;;;;;;;20.40;87.40;;;;;;4828137;29;19939;-78
2023/05/27 06:39:59;;;;;;;;;;;20.50;88.10;;;;;;4816355;29;19929;-77
2023/05/27 06:42:26;;;;;;;;;;;20.70;87.90;;;;;;4835468;29;19928;-77
2023/05/27 06:45:09;;;;;;;;;;;20.70;85.70;;;;;;4820498;29;20456;-77
2023/05/27 06:47:36;;;;;;;;;;;20.70;87.20;;;;;;4815840;29;19936;-77
2023/05/27 06:50:03;;;;;;;;;;;20.60;87.30;;;;;;4840150;29;19943;-77
2023/05/27 06:52:30;;;;;;;;;;;20.50;86.40;;;;;;4814599;29;20027;-79
2023/05/27 06:55:14;;;;;;;;;;;20.60;86.30;;;;;;4821540;29;19936;-77
2023/05/27 06:58:05;;;;;;;;;;;20.60;86.00;;;;;;4832452;29;19937;-78
2023/05/27 07:00:55;;;;;;;;;;;21.10;84.10;;;;;;4827702;29;19937;-77
2023/05/27 07:03:29;;;;;;;;;;;21.30;82.70;;;;;;4813724;29;19928;-77
2023/05/27 07:05:56;;;;;;;;;;;21.80;81.00;;;;;;4813062;29;22666;-77
2023/05/27 07:08:26;;;;;;;;;;;22.20;79.80;;;;;;4829488;29;19976;-78
2023/05/27 07:11:05;;;;;;;;;;;22.40;79.70;;;;;;4821493;29;19929;-78
2023/05/27 07:13:32;;;;;;;;;;;22.50;78.40;;;;;;4816530;29;20011;-78
2023/05/27 07:16:00;;;;;;;;;;;22.70;78.40;;;;;;4827260;29;19940;-77
2023/05/27 07:18:27;;;;;;;;;;;22.60;78.00;;;;;;4830593;29;19933;-78
2023/05/27 07:20:59;;;;;;;;;;;22.60;76.70;;;;;;4814244;29;20274;-79
2023/05/27 07:23:26;;;;;;;;;;;22.40;76.70;;;;;;4809277;29;20064;-77
2023/05/27 07:26:04;;;;;;;;;;;22.40;77.50;;;;;;4814352;29;20290;-78
2023/05/27 07:28:32;;;;;;;;;;;22.50;76.40;;;;;;4833785;29;20031;-78
2023/05/27 07:31:12;;;;;;;;;;;22.70;76.50;;;;;;4816167;29;19940;-79
2023/05/27 07:33:46;;;;;;;;;;;22.80;76.10;;;;;;4827057;29;19939;-79
2023/05/27 07:36:15;;;;;;;;;;;23.00;76.70;;;;;;4829680;29;19935;-77
2023/05/27 07:38:42;;;;;;;;;;;22.90;74.60;;;;;;4831359;29;19937;-78
2023/05/27 07:41:09;;;;;;;;;;;23.00;75.30;;;;;;4813578;29;19980;-77
2023/05/27 07:43:36;;;;;;;;;;;23.20;75.40;;;;;;4817849;29;19940;-79
2023/05/27 07:46:04;;;;;;;;;;;23.10;74.00;;;;;;4829545;29;19936;-77
2023/05/27 07:48:33;;;;;;;;;;;23.10;74.20;;;;;;4816760;29;20404;-78
2023/05/27 07:51:00;;;;;;;;;;;23.10;74.00;;;;;;4836369;29;20682;-77
2023/05/27 07:53:27;;;;;;;;;;;22.80;72.60;;;;;;4837967;29;19936;-77
2023/05/27 07:55:54;;;;;;;;;;;23.00;73.90;;;;;;4817444;29;19928;-79
2023/05/27 07:58:21;;;;;;;;;;;23.10;74.00;;;;;;4819227;29;19971;-78
2023/05/27 08:00:59;;;;;;;;;;;23.20;73.40;;;;;;4811021;29;20367;-77
2023/05/27 08:03:27;;;;;;;;;;;23.10;72.50;;;;;;4814027;29;19929;-78
2023/05/27 08:06:18;;;;;;;;;;;23.30;73.90;;;;;;4826289;29;19951;-78
2023/05/27 08:09:03;;;;;;;;;;;23.40;72.80;;;;;;4819358;29;19936;-79
2023/05/27 08:11:33;;;;;;;;;;;23.30;73.30;;;;;;4839862;29;22550;-77
2023/05/27 08:14:12;;;;;;;;;;;23.40;72.60;;;;;;4833710;29;19944;-77
2023/05/27 08:16:57;;;;;;;;;;;23.40;72.30;;;;;;4824622;29;23098;-77
2023/05/27 08:19:38;;;;;;;;;;;23.60;73.80;;;;;;4828775;29;20815;-76
2023/05/27 08:22:31;;;;;;;;;;;23.70;72.00;;;;;;4841968;29;19993;-77
2023/05/27 08:25:17;;;;;;;;;;;23.30;71.70;;;;;;4827943;29;19935;-77
2023/05/27 08:28:04;;;;;;;;;;;23.10;72.70;;;;;;4832441;29;19943;-78
2023/05/27 08:30:53;;;;;;;;;;;23.30;72.00;;;;;;4833378;29;19947;-79
2023/05/27 08:33:25;;;;;;;;;;;23.70;72.10;;;;;;4818915;29;20027;-78
2023/05/27 08:35:53;;;;;;;;;;;23.80;71.80;;;;;;4815681;29;20111;-78
2023/05/27 08:38:20;;;;;;;;;;;23.80;72.10;;;;;;4836041;29;20372;-78
2023/05/27 08:40:48;;;;;;;;;;;23.80;71.80;;;;;;4814779;29;19928;-79
2023/05/27 08:43:36;;;;;;;;;;;23.80;71.40;;;;;;4788301;29;20017;-78
2023/05/27 08:46:04;;;;;;;;;;;23.70;70.80;;;;;;4758319;29;20877;-76
2023/05/27 08:48:31;;;;;;;;;;;23.60;71.20;;;;;;4789803;29;22735;-78
2023/05/27 08:51:00;;;;;;;;;;;23.70;70.90;;;;;;4794791;29;19930;-77
2023/05/27 08:53:28;;;;;;;;;;;23.70;70.70;;;;;;4786922;29;19972;-79
2023/05/27 08:55:56;;;;;;;;;;;23.90;72.90;;;;;;4771776;29;20006;-77
2023/05/27 08:58:23;;;;;;;;;;;24.00;71.30;;;;;;4789286;29;19997;-77
2023/05/27 09:00:52;;;;;;;;;;;23.90;70.40;;;;;;4787068;29;19938;-76
2023/05/27 09:03:22;;;;;;;;;;;23.80;69.60;;;;;;4787404;29;19944;-79
2023/05/27 09:05:51;;;;;;;;;;;24.00;68.10;;;;;;4770468;29;20088;-76
2023/05/27 09:08:18;;;;;;;;;;;24.00;69.50;;;;;;4776182;29;19929;-78
2023/05/27 09:10:45;;;;;;;;;;;24.10;68.20;;;;;;4790152;29;19970;-78
2023/05/27 09:13:12;;;;;;;;;;;24.20;69.00;;;;;;4789597;29;19929;-78
2023/05/27 09:15:40;;;;;;;;;;;24.30;69.10;;;;;;4824195;29;20015;-78
2023/05/27 09:18:08;;;;;;;;;;;24.30;68.10;;;;;;4838469;29;20053;-79
2023/05/27 09:20:35;;;;;;;;;;;24.30;65.10;;;;;;4826286;29;19943;-77
2023/05/27 09:23:03;;;;;;;;;;;24.40;65.30;;;;;;4807846;29;19936;-77
2023/05/27 09:25:30;;;;;;;;;;;24.30;63.80;;;;;;4839272;29;23766;-77
2023/05/27 09:27:57;;;;;;;;;;;24.30;65.40;;;;;;4821415;29;20027;-77
2023/05/27 09:30:26;;;;;;;;;;;24.50;65.10;;;;;;4808614;29;20028;-75
2023/05/27 09:33:00;;;;;;;;;;;24.60;63.70;;;;;;4835154;29;19963;-76
2023/05/27 09:35:27;;;;;;;;;;;24.60;63.10;;;;;;4828554;29;20388;-77
2023/05/27 09:37:54;;;;;;;;;;;24.50;62.40;;;;;;4811429;29;19943;-77
2023/05/27 09:40:21;;;;;;;;;;;24.40;64.40;;;;;;4780861;29;19939;-78
2023/05/27 09:42:49;;;;;;;;;;;24.60;64.60;;;;;;4802413;29;20144;-77
2023/05/27 09:45:17;;;;;;;;;;;24.60;62.50;;;;;;4819011;29;19937;-76
2023/05/27 09:47:47;;;;;;;;;;;24.60;63.10;;;;;;4792904;29;21424;-76
2023/05/27 09:50:15;;;;;;;;;;;24.50;62.90;;;;;;4801192;29;19936;-77
2023/05/27 09:52:43;;;;;;;;;;;24.80;65.60;;;;;;4829616;29;19943;-77
2023/05/27 09:55:25;;;;;;;;;;;24.90;63.90;;;;;;4800985;29;19943;-78
2023/05/27 09:57:52;;;;;;;;;;;25.00;65.20;;;;;;4788568;29;20070;-77
2023/05/27 10:00:20;;;;;;;;;;;25.10;64.00;;;;;;4787845;29;19962;-77
2023/05/27 10:02:48;;;;;;;;;;;24.60;63.60;;;;;;4795000;29;19932;-77
2023/05/27 10:05:16;;;;;;;;;;;24.50;64.80;;;;;;4790709;29;21529;-77
2023/05/27 10:07:44;;;;;;;;;;;24.80;65.20;;;;;;4787610;29;19936;-77
2023/05/27 10:10:32;;;;;;;;;;;24.90;65.30;;;;;;4789844;29;20350;-77
2023/05/27 10:12:59;;;;;;;;;;;25.00;65.00;;;;;;4793632;29;20027;-77
2023/05/27 10:15:31;;;;;;;;;;;25.30;65.00;;;;;;4789950;29;19943;-77
2023/05/27 10:17:59;;;;;;;;;;;25.10;62.10;;;;;;4796957;29;19936;-78
2023/05/27 10:20:29;;;;;;;;;;;24.80;63.90;;;;;;4806054;29;22309;-79
2023/05/27 10:23:09;;;;;;;;;;;24.60;64.20;;;;;;4792046;29;20087;-78
2023/05/27 10:25:38;;;;;;;;;;;24.70;64.20;;;;;;4795440;29;19980;-78
2023/05/27 10:28:05;;;;;;;;;;;24.80;64.00;;;;;;4824160;29;19943;-79
2023/05/27 10:30:45;;;;;;;;;;;25.00;65.00;;;;;;4795329;29;19936;-78
2023/05/27 10:33:13;;;;;;;;;;;24.60;62.50;;;;;;4808419;29;19928;-82
2023/05/27 10:35:41;;;;;;;;;;;24.80;63.70;;;;;;4789109;29;20150;-80
2023/05/27 10:38:15;;;;;;;;;;;24.80;63.00;;;;;;4789887;29;22267;-78
2023/05/27 10:40:45;;;;;;;;;;;24.60;63.90;;;;;;4784735;29;20084;-77
2023/05/27 10:43:18;;;;;;;;;;;24.40;64.10;;;;;;4792855;29;19936;-78
2023/05/27 10:45:46;;;;;;;;;;;24.20;64.50;;;;;;4772125;29;19936;-77
2023/05/27 10:48:20;;;;;;;;;;;24.60;64.70;;;;;;4793100;29;19936;-79
2023/05/27 10:50:53;;;;;;;;;;;24.80;64.40;;;;;;4807600;29;19929;-77
2023/05/27 10:53:23;;;;;;;;;;;24.90;63.70;;;;;;4782535;29;20039;-77
2023/05/27 10:55:51;;;;;;;;;;;25.00;64.20;;;;;;4780378;29;20463;-79
2023/05/27 10:58:19;;;;;;;;;;;25.20;64.10;;;;;;4790622;29;19972;-78
2023/05/27 11:00:50;;;;;;;;;;;24.80;63.80;;;;;;4780127;29;20309;-78
2023/05/27 11:03:19;;;;;;;;;;;24.60;64.20;;;;;;4794754;29;19932;-79
2023/05/27 11:05:47;;;;;;;;;;;24.60;64.40;;;;;;4816045;29;19936;-78
2023/05/27 11:08:14;;;;;;;;;;;24.40;65.10;;;;;;4787906;29;19943;-77
2023/05/27 11:11:01;;;;;;;;;;;24.40;63.30;;;;;;4768737;29;20634;-78
2023/05/27 11:13:48;;;;;;;;;;;24.60;63.70;;;;;;4764886;29;20298;-79
2023/05/27 11:16:15;;;;;;;;;;;24.80;63.50;;;;;;4756038;29;19971;-79
2023/05/27 11:18:44;;;;;;;;;;;24.90;64.10;;;;;;4771557;29;19936;-76
2023/05/27 11:21:12;;;;;;;;;;;25.00;64.50;;;;;;4760595;29;19936;-77
2023/05/27 11:23:40;;;;;;;;;;;24.90;63.10;;;;;;4753932;29;20736;-77
2023/05/27 11:26:14;;;;;;;;;;;24.90;63.20;;;;;;4769689;29;19937;-79
2023/05/27 11:28:47;;;;;;;;;;;25.00;62.40;;;;;;4772585;29;20811;-77
2023/05/27 11:31:15;;;;;;;;;;;24.80;62.60;;;;;;4775515;29;19936;-78
2023/05/27 11:33:43;;;;;;;;;;;24.90;62.50;;;;;;4772959;29;19992;-78
2023/05/27 11:36:11;;;;;;;;;;;25.00;63.10;;;;;;4781812;29;19933;-78
2023/05/27 11:38:45;;;;;;;;;;;25.00;62.50;;;;;;4788652;29;19937;-78
2023/05/27 11:41:16;;;;;;;;;;;25.00;62.50;;;;;;4787860;29;19936;-79
2023/05/27 11:43:48;;;;;;;;;;;24.80;63.40;;;;;;4798348;29;20012;-78
2023/05/27 11:46:15;;;;;;;;;;;24.80;62.30;;;;;;4785968;29;19936;-78
2023/05/27 11:48:43;;;;;;;;;;;24.60;62.30;;;;;;4814626;29;20337;-78
2023/05/27 11:51:10;;;;;;;;;;;24.50;62.70;;;;;;4843293;29;19937;-77
2023/05/27 11:53:46;;;;;;;;;;;24.40;63.50;;;;;;4800992;29;19939;-78
2023/05/27 11:56:15;;;;;;;;;;;24.30;62.50;;;;;;4844048;29;19936;-79
2023/05/27 11:58:42;;;;;;;;;;;24.20;63.30;;;;;;4796579;29;19947;-77
2023/05/27 12:01:09;;;;;;;;;;;24.10;64.70;;;;;;4833304;29;19944;-77
2023/05/27 12:03:36;;;;;;;;;;;24.00;64.10;;;;;;4816543;29;20296;-78
2023/05/27 12:06:03;;;;;;;;;;;24.00;64.60;;;;;;4816910;29;20400;-79
2023/05/27 12:08:30;;;;;;;;;;;24.00;64.60;;;;;;4796231;29;20447;-78
2023/05/27 12:10:57;;;;;;;;;;;24.00;65.80;;;;;;4774769;29;19936;-79
2023/05/27 12:13:25;;;;;;;;;;;23.90;65.30;;;;;;4799956;29;20041;-78
2023/05/27 12:15:53;;;;;;;;;;;23.70;65.00;;;;;;4803954;29;19936;-77
2023/05/27 12:18:20;;;;;;;;;;;23.70;65.90;;;;;;4778465;29;19936;-78
2023/05/27 12:20:47;;;;;;;;;;;23.70;65.70;;;;;;4802128;29;19929;-77
2023/05/27 12:23:14;;;;;;;;;;;23.70;66.00;;;;;;4791828;29;19984;-77
2023/05/27 12:25:41;;;;;;;;;;;23.50;65.50;;;;;;4796852;29;19936;-76
2023/05/27 12:28:09;;;;;;;;;;;23.50;66.00;;;;;;4787774;29;20419;-78
2023/05/27 12:30:36;;;;;;;;;;;23.50;66.40;;;;;;4794277;29;19980;-77
2023/05/27 12:33:04;;;;;;;;;;;23.70;66.50;;;;;;4793919;29;19943;-77
2023/05/27 12:35:33;;;;;;;;;;;23.60;66.00;;;;;;4787011;29;19960;-78
2023/05/27 12:38:00;;;;;;;;;;;23.50;66.40;;;;;;4794456;29;20077;-77
2023/05/27 12:40:27;;;;;;;;;;;23.50;66.30;;;;;;4790306;29;19937;-77
2023/05/27 12:42:54;;;;;;;;;;;23.50;66.30;;;;;;4789121;29;19942;-75
2023/05/27 12:45:23;;;;;;;;;;;23.50;66.30;;;;;;4806151;29;19982;-76
2023/05/27 12:47:50;;;;;;;;;;;23.40;66.70;;;;;;4803833;29;20008;-79
2023/05/27 12:50:17;;;;;;;;;;;23.50;66.60;;;;;;4823781;29;19928;-76
2023/05/27 12:52:47;;;;;;;;;;;23.50;66.60;;;;;;4815291;29;19975;-77
2023/05/27 12:55:17;;;;;;;;;;;23.40;65.90;;;;;;4805446;29;20424;-76
2023/05/27 12:57:47;;;;;;;;;;;23.40;66.20;;;;;;4803586;29;20488;-76
2023/05/27 13:00:15;;;;;;;;;;;23.30;65.80;;;;;;4776748;29;19940;-76
2023/05/27 13:02:43;;;;;;;;;;;23.40;66.50;;;;;;4796855;29;22385;-77
2023/05/27 13:05:10;;;;;;;;;;;23.70;64.70;;;;;;4777728;29;20589;-79
2023/05/27 13:07:40;;;;;;;;;;;24.10;66.80;;;;;;4790971;29;20070;-79
2023/05/27 13:10:13;;;;;;;;;;;24.40;66.10;;;;;;4793613;29;20011;-77
2023/05/27 13:12:40;;;;;;;;;;;24.60;64.70;;;;;;4823968;29;19936;-78
2023/05/27 13:15:08;;;;;;;;;;;24.60;64.50;;;;;;4803697;29;20039;-79
2023/05/27 13:17:36;;;;;;;;;;;24.30;65.60;;;;;;4791501;29;19936;-77
2023/05/27 13:20:04;;;;;;;;;;;24.20;66.40;;;;;;4793886;29;19936;-78
2023/05/27 13:22:31;;;;;;;;;;;23.80;65.80;;;;;;4803313;29;19936;-79
2023/05/27 13:24:58;;;;;;;;;;;23.80;66.10;;;;;;4814218;29;19933;-79
2023/05/27 13:27:26;;;;;;;;;;;23.80;66.10;;;;;;4797370;29;19936;-79
2023/05/27 13:29:53;;;;;;;;;;;23.80;66.40;;;;;;4792038;29;20511;-78
2023/05/27 13:32:20;;;;;;;;;;;23.90;66.70;;;;;;4780723;29;19989;-78
2023/05/27 13:34:47;;;;;;;;;;;23.90;66.80;;;;;;4790361;29;19928;-77
2023/05/27 13:37:15;;;;;;;;;;;23.80;67.20;;;;;;4805635;29;19979;-79
2023/05/27 13:39:43;;;;;;;;;;;23.80;67.40;;;;;;4804514;29;20074;-77
2023/05/27 13:42:10;;;;;;;;;;;23.80;67.90;;;;;;4772998;29;22376;-77
2023/05/27 13:44:37;;;;;;;;;;;23.80;67.40;;;;;;4783883;29;19960;-77
2023/05/27 13:47:05;;;;;;;;;;;23.80;67.60;;;;;;4801003;29;20286;-78
2023/05/27 13:49:32;;;;;;;;;;;23.80;68.10;;;;;;4822939;29;19940;-77
2023/05/27 13:51:59;;;;;;;;;;;23.80;68.70;;;;;;4801413;29;19936;-79
2023/05/27 13:54:26;;;;;;;;;;;23.80;68.10;;;;;;4787629;29;22356;-79
2023/05/27 13:56:53;;;;;;;;;;;23.70;68.30;;;;;;4798454;29;19937;-77
2023/05/27 13:59:20;;;;;;;;;;;23.60;68.40;;;;;;4787551;29;19936;-77
2023/05/27 14:01:49;;;;;;;;;;;23.80;68.70;;;;;;4801929;29;20494;-77
2023/05/27 14:04:17;;;;;;;;;;;23.90;68.40;;;;;;4801820;29;20309;-78
2023/05/27 14:06:44;;;;;;;;;;;23.80;67.40;;;;;;4803130;29;19979;-78
2023/05/27 14:09:11;;;;;;;;;;;23.80;68.20;;;;;;4785965;29;19949;-79
2023/05/27 14:11:38;;;;;;;;;;;23.60;68.10;;;;;;4804452;29;20696;-79
2023/05/27 14:14:05;;;;;;;;;;;23.40;69.00;;;;;;4793656;29;20724;-79
2023/05/27 14:16:32;;;;;;;;;;;23.50;69.90;;;;;;4814543;29;20426;-80
2023/05/27 14:19:00;;;;;;;;;;;23.50;69.20;;;;;;4803212;29;19936;-80
2023/05/27 14:21:27;;;;;;;;;;;23.50;69.00;;;;;;4805910;29;20441;-80
2023/05/27 14:23:54;;;;;;;;;;;23.60;68.00;;;;;;4789405;29;20323;-78
2023/05/27 14:26:21;;;;;;;;;;;23.60;68.20;;;;;;4802409;29;19928;-79
2023/05/27 14:28:49;;;;;;;;;;;23.70;67.80;;;;;;4813007;29;19929;-80